Time;durP1;ratioP1;P1;durP2;ratioP2;P2;SDS_P1;SDS_P2;PMS_P1;PMS_P2;Temp;Humidity;BMP_temperature;BMP_pressure;BME280_temperature;BME280_humidity;BME280_pressure;Samples;Min_cycle;Max_cycle;Signal;HPM_P1;HPM_P2
2022/01/08 05:01:20;;;;;;;1.83;1.70;;;3.80;99.90;;;;;;5580075;23;20568;-71
2022/01/08 05:03:46;;;;;;;1.70;1.60;;;3.80;99.90;;;;;;4978179;28;20486;-70
2022/01/08 05:06:13;;;;;;;1.60;1.50;;;3.80;99.90;;;;;;4978119;28;20458;-70
2022/01/08 05:08:41;;;;;;;1.90;1.80;;;3.60;99.90;;;;;;4977983;28;20830;-70
2022/01/08 05:11:07;;;;;;;1.80;1.53;;;3.50;99.90;;;;;;4977442;28;20978;-70
2022/01/08 05:13:34;;;;;;;1.83;1.73;;;3.40;99.90;;;;;;4977903;28;20910;-71
2022/01/08 05:16:01;;;;;;;2.70;1.80;;;3.20;99.90;;;;;;4978015;28;20467;-71
2022/01/08 05:18:31;;;;;;;1.90;1.80;;;3.00;99.90;;;;;;4977606;28;20455;-70
2022/01/08 05:21:09;;;;;;;1.90;1.80;;;3.00;99.90;;;;;;4977425;28;20482;-70
2022/01/08 05:23:36;;;;;;;2.27;2.17;;;2.70;99.90;;;;;;4978104;28;20813;-70
2022/01/08 05:26:02;;;;;;;2.50;2.40;;;2.80;99.90;;;;;;4979623;28;20466;-70
2022/01/08 05:28:29;;;;;;;2.10;2.00;;;2.80;99.90;;;;;;4978461;28;20800;-70
2022/01/08 05:30:56;;;;;;;2.00;1.83;;;2.80;99.90;;;;;;4977651;28;20486;-70
2022/01/08 05:33:22;;;;;;;3.40;2.40;;;2.90;99.90;;;;;;4978751;28;20459;-70
2022/01/08 05:35:50;;;;;;;2.00;1.90;;;2.90;99.90;;;;;;4978048;28;21005;-71
2022/01/08 05:38:17;;;;;;;2.10;2.00;;;3.00;99.90;;;;;;4977238;28;20528;-70
2022/01/08 05:40:44;;;;;;;2.03;1.70;;;3.00;99.90;;;;;;4977295;28;20478;-69
2022/01/08 05:43:11;;;;;;;2.13;1.20;;;3.00;99.90;;;;;;4977188;28;20459;-70
2022/01/08 05:45:37;;;;;;;1.13;1.13;;;2.90;99.90;;;;;;4976840;28;20840;-70
2022/01/08 05:48:05;;;;;;;1.00;1.00;;;3.00;99.90;;;;;;4977192;28;20462;-71
2022/01/08 05:50:32;;;;;;;0.90;0.90;;;3.00;99.90;;;;;;4976613;28;20475;-70
2022/01/08 05:53:00;;;;;;;1.00;1.00;;;3.00;99.90;;;;;;4977059;28;20463;-70
2022/01/08 05:55:27;;;;;;;0.70;0.70;;;3.00;99.90;;;;;;4977454;28;20440;-70
2022/01/08 05:57:53;;;;;;;0.87;0.87;;;3.00;99.90;;;;;;4977131;28;20868;-70
2022/01/08 06:00:20;;;;;;;1.10;1.10;;;3.00;99.90;;;;;;4976734;28;20466;-70
2022/01/08 06:02:47;;;;;;;1.37;1.07;;;3.00;99.90;;;;;;4976989;28;20451;-71
2022/01/08 06:05:14;;;;;;;1.20;1.20;;;3.00;99.90;;;;;;4977204;28;20490;-71
2022/01/08 06:07:41;;;;;;;1.43;1.43;;;3.00;99.90;;;;;;4976657;28;20817;-71
2022/01/08 06:10:10;;;;;;;1.37;1.37;;;3.00;99.90;;;;;;4976685;28;20459;-71
2022/01/08 06:12:37;;;;;;;1.33;1.30;;;3.00;99.90;;;;;;4977024;28;20818;-71
2022/01/08 06:15:04;;;;;;;1.03;1.03;;;2.90;99.90;;;;;;4976944;28;20507;-70
2022/01/08 06:17:30;;;;;;;0.90;0.90;;;2.90;99.90;;;;;;4976709;28;20459;-70
2022/01/08 06:19:58;;;;;;;0.80;0.80;;;2.90;99.90;;;;;;4976722;28;20535;-71
2022/01/08 06:22:25;;;;;;;0.77;0.77;;;2.90;99.90;;;;;;4976647;28;20900;-70
2022/01/08 06:24:51;;;;;;;0.80;0.80;;;2.90;99.90;;;;;;4977070;28;20471;-71
2022/01/08 06:27:19;;;;;;;0.83;0.83;;;2.80;99.90;;;;;;4976625;28;20451;-71
2022/01/08 06:29:46;;;;;;;1.00;1.00;;;2.80;99.90;;;;;;4976732;28;20470;-71
2022/01/08 06:32:14;;;;;;;0.60;0.60;;;2.80;99.90;;;;;;4976202;28;20487;-71
2022/01/08 06:34:40;;;;;;;1.00;1.00;;;2.70;99.90;;;;;;4976659;28;20451;-70
2022/01/08 06:37:07;;;;;;;1.23;1.23;;;2.60;99.90;;;;;;4976626;28;20495;-71
2022/01/08 06:39:34;;;;;;;1.80;1.20;;;2.60;99.90;;;;;;4976045;28;20461;-70
2022/01/08 06:42:01;;;;;;;1.53;1.53;;;2.60;99.90;;;;;;4976666;28;20475;-71
2022/01/08 06:44:29;;;;;;;1.20;1.20;;;2.50;99.90;;;;;;4976715;28;20474;-70
2022/01/08 06:46:56;;;;;;;1.17;1.17;;;2.50;99.90;;;;;;4976678;28;20466;-70
2022/01/08 06:49:23;;;;;;;1.17;1.17;;;2.50;99.90;;;;;;4976754;28;20455;-70
2022/01/08 06:51:50;;;;;;;1.37;1.37;;;2.50;99.90;;;;;;4976305;28;20482;-70
2022/01/08 06:54:16;;;;;;;1.37;1.37;;;2.40;99.90;;;;;;4975449;28;20458;-71
2022/01/08 06:56:43;;;;;;;1.27;1.27;;;2.50;99.90;;;;;;4982203;28;20455;-71
2022/01/08 06:59:10;;;;;;;1.50;1.50;;;2.40;99.90;;;;;;4983674;28;20451;-70
2022/01/08 07:01:38;;;;;;;1.53;1.43;;;2.40;99.90;;;;;;4976281;28;20498;-70
2022/01/08 07:04:05;;;;;;;1.10;1.10;;;2.50;99.90;;;;;;4976052;28;20459;-70
2022/01/08 07:06:32;;;;;;;2.00;1.80;;;2.50;99.90;;;;;;4976574;28;20937;-70
2022/01/08 07:08:58;;;;;;;1.70;1.70;;;2.50;99.90;;;;;;4981610;28;20455;-70
2022/01/08 07:11:25;;;;;;;2.43;1.70;;;2.50;99.90;;;;;;4981205;28;20478;-71
2022/01/08 07:13:52;;;;;;;2.30;1.70;;;2.50;99.90;;;;;;4981007;28;20462;-71
2022/01/08 07:16:18;;;;;;;2.17;2.07;;;2.60;99.90;;;;;;4978381;28;20455;-70
2022/01/08 07:18:46;;;;;;;1.87;1.77;;;2.60;99.90;;;;;;4975881;28;20458;-71
2022/01/08 07:21:13;;;;;;;4.13;2.37;;;2.50;99.90;;;;;;4975331;28;20570;-72
2022/01/08 07:23:40;;;;;;;2.27;2.03;;;2.50;99.90;;;;;;4975229;28;20466;-71
2022/01/08 07:26:07;;;;;;;1.70;1.60;;;2.50;99.90;;;;;;4975209;28;20487;-71
2022/01/08 07:28:33;;;;;;;2.27;2.13;;;2.50;99.90;;;;;;4975745;28;20439;-71
2022/01/08 07:31:00;;;;;;;2.10;2.00;;;2.50;99.90;;;;;;4975459;28;20479;-71
2022/01/08 07:33:27;;;;;;;2.23;2.07;;;2.50;99.90;;;;;;4975694;28;20459;-71
2022/01/08 07:35:55;;;;;;;1.87;1.77;;;2.50;99.90;;;;;;4975609;28;20455;-72
2022/01/08 07:38:22;;;;;;;2.13;2.03;;;2.50;99.90;;;;;;4975811;28;20462;-71
2022/01/08 07:40:51;;;;;;;3.10;2.80;;;2.60;99.90;;;;;;4975514;28;20526;-72
2022/01/08 07:43:18;;;;;;;3.70;2.70;;;2.50;99.90;;;;;;4975247;28;20455;-72
2022/01/08 07:45:45;;;;;;;2.53;2.43;;;2.60;99.90;;;;;;4975402;28;20523;-72
2022/01/08 07:48:12;;;;;;;3.13;2.90;;;2.70;99.90;;;;;;4986943;28;20990;-73
2022/01/08 07:50:39;;;;;;;3.40;3.17;;;2.70;99.90;;;;;;4986819;28;20491;-72
2022/01/08 07:53:07;;;;;;;3.77;3.50;;;2.70;99.90;;;;;;4981925;28;20462;-71
2022/01/08 07:55:34;;;;;;;3.23;3.03;;;2.80;99.90;;;;;;4975720;28;20953;-72
2022/01/08 07:58:00;;;;;;;3.63;3.33;;;2.80;99.90;;;;;;4975505;28;20455;-71
2022/01/08 08:00:27;;;;;;;4.30;3.90;;;2.80;99.90;;;;;;4976158;28;20459;-71
2022/01/08 08:02:54;;;;;;;6.07;4.43;;;2.90;99.90;;;;;;4976599;28;20447;-70
2022/01/08 08:05:21;;;;;;;5.20;4.10;;;2.90;99.90;;;;;;4977622;28;20515;-70
2022/01/08 08:07:48;;;;;;;4.13;3.80;;;2.90;99.90;;;;;;4980360;28;20458;-70
2022/01/08 08:10:18;;;;;;;3.47;3.17;;;2.90;99.90;;;;;;4980615;28;20451;-70
2022/01/08 08:12:45;;;;;;;4.37;3.13;;;2.90;99.90;;;;;;4980827;28;20525;-70
2022/01/08 08:15:15;;;;;;;4.47;3.73;;;2.90;99.90;;;;;;4979291;28;20462;-71
2022/01/08 08:17:42;;;;;;;4.57;3.03;;;2.90;99.90;;;;;;4979174;28;20797;-71
2022/01/08 08:20:10;;;;;;;3.40;2.70;;;3.00;99.90;;;;;;4979546;28;20454;-72
2022/01/08 08:22:37;;;;;;;2.40;2.20;;;3.00;99.90;;;;;;4979405;28;20451;-71
2022/01/08 08:25:04;;;;;;;5.50;2.37;;;3.00;99.90;;;;;;4979773;28;20467;-71
2022/01/08 08:27:33;;;;;;;4.43;2.50;;;2.90;99.90;;;;;;4981052;28;20822;-74
2022/01/08 08:29:59;;;;;;;3.13;2.93;;;2.90;99.90;;;;;;4981249;28;20463;-73
2022/01/08 08:32:26;;;;;;;2.77;2.57;;;2.90;99.90;;;;;;4980439;28;20482;-72
2022/01/08 08:34:53;;;;;;;3.80;3.10;;;3.00;99.90;;;;;;4978361;28;20455;-71
2022/01/08 08:37:20;;;;;;;4.43;2.27;;;3.00;99.90;;;;;;4978452;28;20455;-72
2022/01/08 08:39:47;;;;;;;3.90;3.13;;;3.00;99.90;;;;;;4978588;28;20455;-74
2022/01/08 08:42:13;;;;;;;3.63;2.73;;;3.00;99.90;;;;;;4978428;28;20529;-73
2022/01/08 08:44:41;;;;;;;3.57;2.80;;;3.10;99.90;;;;;;4978410;28;20462;-74
2022/01/08 08:47:09;;;;;;;3.10;2.30;;;3.20;99.90;;;;;;4978167;28;20791;-76
2022/01/08 08:49:36;;;;;;;2.53;2.00;;;3.30;99.90;;;;;;4979345;28;20451;-76
2022/01/08 08:52:03;;;;;;;5.53;1.90;;;3.30;99.90;;;;;;4981159;28;20470;-81
2022/01/08 08:54:30;;;;;;;5.47;2.53;;;3.40;99.90;;;;;;4984834;28;20794;-78
2022/01/08 08:56:57;;;;;;;5.93;2.23;;;3.60;99.90;;;;;;4987426;28;20458;-73
2022/01/08 08:59:24;;;;;;;3.03;2.57;;;3.60;99.90;;;;;;4986498;28;20458;-72
2022/01/08 09:01:52;;;;;;;3.40;2.40;;;3.70;99.90;;;;;;4978974;28;20479;-76
2022/01/08 09:04:19;;;;;;;4.60;2.23;;;3.70;99.90;;;;;;4978113;28;20455;-74
2022/01/08 09:06:46;;;;;;;2.97;2.77;;;3.80;99.90;;;;;;4978014;28;20481;-75
2022/01/08 09:09:12;;;;;;;2.63;2.43;;;3.80;99.90;;;;;;4978861;28;20466;-72
2022/01/08 09:11:39;;;;;;;2.60;2.40;;;3.80;99.90;;;;;;4978342;28;21008;-76
2022/01/08 09:14:06;;;;;;;4.30;2.40;;;3.80;99.90;;;;;;4978645;28;20465;-77
2022/01/08 09:16:34;;;;;;;4.83;2.27;;;4.20;99.90;;;;;;4977993;28;20455;-76
2022/01/08 09:19:02;;;;;;;2.60;2.00;;;4.30;99.90;;;;;;4978317;28;20958;-75
2022/01/08 09:21:29;;;;;;;4.73;2.20;;;4.30;99.90;;;;;;4978451;28;20479;-76
2022/01/08 09:23:55;;;;;;;2.37;2.00;;;4.40;99.90;;;;;;4978470;28;20818;-75
2022/01/08 09:26:22;;;;;;;5.03;2.73;;;4.50;99.90;;;;;;4978285;28;20502;-75
2022/01/08 09:28:49;;;;;;;5.00;3.27;;;4.50;99.90;;;;;;4977740;28;20462;-74
2022/01/08 09:31:18;;;;;;;5.93;2.13;;;4.60;99.90;;;;;;4977398;28;20479;-74
2022/01/08 09:33:45;;;;;;;4.40;2.40;;;4.60;99.90;;;;;;4977429;28;20559;-74
2022/01/08 09:36:13;;;;;;;3.27;1.90;;;4.60;99.90;;;;;;4977162;28;20451;-72
2022/01/08 09:38:40;;;;;;;5.53;3.90;;;4.50;99.90;;;;;;4977816;28;20481;-71
2022/01/08 09:41:07;;;;;;;3.90;2.43;;;4.50;99.90;;;;;;4978336;28;20505;-72
2022/01/08 09:43:35;;;;;;;2.40;2.10;;;4.40;99.90;;;;;;4977890;28;20455;-71
2022/01/08 09:46:02;;;;;;;2.73;2.37;;;4.40;99.90;;;;;;4977989;28;20472;-71
2022/01/08 09:48:28;;;;;;;4.00;2.47;;;4.40;99.90;;;;;;4978494;28;20457;-72
2022/01/08 09:50:55;;;;;;;5.73;2.73;;;4.40;99.90;;;;;;4978210;28;20492;-73
2022/01/08 09:53:23;;;;;;;3.40;2.33;;;4.50;99.90;;;;;;4978544;28;20860;-72
2022/01/08 09:55:50;;;;;;;3.67;2.20;;;4.50;99.90;;;;;;4977746;28;20455;-71
2022/01/08 09:58:17;;;;;;;3.07;2.30;;;4.60;99.90;;;;;;4978495;28;20455;-73
2022/01/08 10:00:46;;;;;;;2.07;1.87;;;4.70;99.90;;;;;;4978595;28;20491;-72
2022/01/08 10:03:15;;;;;;;3.60;2.33;;;4.80;99.90;;;;;;4978261;28;20538;-73
2022/01/08 10:05:47;;;;;;;3.17;2.30;;;4.90;99.90;;;;;;4978636;28;20490;-73
2022/01/08 10:08:15;;;;;;;2.17;2.07;;;5.00;99.90;;;;;;4979138;28;20534;-73
2022/01/08 10:10:55;;;;;;;5.03;2.40;;;4.90;99.90;;;;;;4978712;28;21052;-73
2022/01/08 10:13:25;;;;;;;3.33;2.23;;;5.00;99.90;;;;;;4978184;28;20534;-70
2022/01/08 10:18:39;;;;;;;3.47;2.27;;;5.10;99.90;;;;;;4976932;28;20426;-72
2022/01/08 10:21:19;;;;;;;4.47;2.53;;;5.00;99.90;;;;;;4977439;28;20475;-72
2022/01/08 10:23:47;;;;;;;6.70;2.03;;;5.10;99.90;;;;;;4977431;28;20454;-73
2022/01/08 10:26:17;;;;;;;6.50;2.27;;;5.10;99.90;;;;;;4977495;28;20486;-72
2022/01/08 10:28:48;;;;;;;2.13;1.97;;;5.30;99.90;;;;;;4977525;28;20444;-73
2022/01/08 10:31:18;;;;;;;5.87;2.10;;;5.50;99.90;;;;;;4977938;28;20478;-73
2022/01/08 10:33:48;;;;;;;3.20;2.17;;;5.70;99.90;;;;;;4977722;28;20443;-74
2022/01/08 10:36:20;;;;;;;3.70;1.97;;;5.80;99.90;;;;;;4977612;28;20503;-73
2022/01/08 10:38:51;;;;;;;2.00;1.90;;;5.80;99.90;;;;;;4977104;28;20960;-74
2022/01/08 10:41:19;;;;;;;2.83;2.57;;;6.20;99.90;;;;;;4976858;28;20482;-73
2022/01/08 10:43:46;;;;;;;5.90;2.13;;;6.40;99.90;;;;;;4976982;28;20444;-73
2022/01/08 10:46:15;;;;;;;2.73;1.70;;;6.90;99.90;;;;;;4977024;28;20479;-75
2022/01/08 10:48:47;;;;;;;4.07;2.10;;;8.20;99.90;;;;;;4976834;28;20462;-74
2022/01/08 10:51:17;;;;;;;3.20;2.27;;;9.30;99.90;;;;;;4976077;28;20941;-75
2022/01/08 10:54:02;;;;;;;4.50;2.07;;;10.50;99.90;;;;;;4977051;28;20463;-72
2022/01/08 10:56:33;;;;;;;3.10;1.97;;;11.70;99.90;;;;;;4982152;28;20436;-71
2022/01/08 10:59:02;;;;;;;2.43;2.23;;;12.20;99.90;;;;;;4981767;28;20447;-71
2022/01/08 11:01:44;;;;;;;7.37;2.23;;;12.30;99.90;;;;;;4976291;28;20498;-71
2022/01/08 11:04:13;;;;;;;2.73;2.00;;;11.70;99.90;;;;;;4976908;28;20896;-70
2022/01/08 11:06:54;;;;;;;6.20;2.07;;;10.70;99.90;;;;;;4976324;28;20483;-70
2022/01/08 11:09:22;;;;;;;4.30;1.97;;;10.00;99.90;;;;;;4977312;28;20476;-71
2022/01/08 11:11:50;;;;;;;3.57;2.10;;;9.60;99.90;;;;;;4977136;28;20480;-70
2022/01/08 11:14:44;;;;;;;8.87;3.00;;;9.20;99.90;;;;;;4978176;28;20459;-70
2022/01/08 11:17:12;;;;;;;3.80;2.13;;;8.60;99.90;;;;;;4976387;28;20449;-69
2022/01/08 11:19:44;;;;;;;3.97;1.73;;;8.40;99.90;;;;;;4976437;28;20464;-69
2022/01/08 11:22:14;;;;;;;3.80;1.83;;;8.00;99.90;;;;;;4977741;28;20483;-71
2022/01/08 11:24:49;;;;;;;10.10;2.40;;;7.50;99.90;;;;;;4977361;28;20443;-71
2022/01/08 11:27:20;;;;;;;4.30;1.97;;;7.40;99.90;;;;;;4977459;28;20474;-71
2022/01/08 11:29:55;;;;;;;3.30;2.10;;;7.20;99.90;;;;;;4976517;28;20502;-73
2022/01/08 11:32:24;;;;;;;4.40;2.27;;;6.50;99.90;;;;;;4975851;28;20485;-71
2022/01/08 11:34:51;;;;;;;3.23;2.10;;;6.50;99.90;;;;;;4975963;28;20455;-70
2022/01/08 11:37:18;;;;;;;6.33;2.00;;;6.20;99.90;;;;;;4976578;28;20439;-70
2022/01/08 11:39:46;;;;;;;2.63;2.43;;;6.20;99.90;;;;;;4977317;28;20470;-70
2022/01/08 11:42:14;;;;;;;4.90;2.10;;;6.00;99.90;;;;;;4976505;28;20487;-71
2022/01/08 11:44:42;;;;;;;5.40;2.27;;;6.10;99.90;;;;;;4976789;28;20451;-73
2022/01/08 11:47:09;;;;;;;3.40;1.87;;;5.80;99.90;;;;;;4975760;28;20475;-71
2022/01/08 11:49:36;;;;;;;4.63;1.70;;;5.60;99.90;;;;;;4977162;28;20463;-72
2022/01/08 11:52:18;;;;;;;4.17;1.60;;;5.70;99.90;;;;;;4976087;28;20982;-71
2022/01/08 11:54:47;;;;;;;2.73;1.40;;;5.50;99.90;;;;;;4978093;28;20451;-71
2022/01/08 11:57:23;;;;;;;3.00;1.57;;;5.20;99.90;;;;;;4984854;28;20447;-71
2022/01/08 11:59:57;;;;;;;3.53;1.80;;;5.00;99.90;;;;;;4986035;28;20957;-72
2022/01/08 12:02:35;;;;;;;2.83;1.37;;;5.10;99.90;;;;;;4983377;28;20491;-72
2022/01/08 12:05:02;;;;;;;4.97;2.00;;;5.10;99.90;;;;;;4984011;28;20454;-71
2022/01/08 12:07:35;;;;;;;1.40;1.27;;;5.10;99.90;;;;;;4982367;28;20487;-71
2022/01/08 12:10:10;;;;;;;2.43;1.50;;;5.30;99.90;;;;;;4976523;28;20443;-71
2022/01/08 12:12:59;;;;;;;6.73;2.20;;;5.40;99.90;;;;;;4976191;28;20484;-71
2022/01/08 12:15:48;;;;;;;4.43;1.50;;;5.60;99.90;;;;;;4972679;28;20451;-71
2022/01/08 12:18:17;;;;;;;5.37;1.60;;;5.90;99.90;;;;;;4976458;28;20447;-71
2022/01/08 12:20:49;;;;;;;5.47;2.30;;;5.90;99.90;;;;;;4976636;28;20471;-71
2022/01/08 12:23:34;;;;;;;6.23;1.60;;;5.80;99.90;;;;;;4976068;28;20443;-71
2022/01/08 12:26:03;;;;;;;3.73;1.40;;;5.90;99.90;;;;;;4975956;28;20468;-72
2022/01/08 12:28:53;;;;;;;4.43;1.30;;;5.80;99.90;;;;;;4975386;28;20459;-71
2022/01/08 12:31:44;;;;;;;5.03;1.83;;;6.00;99.90;;;;;;4974890;28;20479;-71
2022/01/08 12:34:31;;;;;;;3.50;1.77;;;6.10;99.90;;;;;;4971569;28;20471;-71
2022/01/08 12:36:59;;;;;;;5.67;1.30;;;6.10;99.90;;;;;;4975636;28;20792;-71
2022/01/08 12:39:29;;;;;;;1.60;1.10;;;6.10;99.90;;;;;;4975078;28;20451;-71
2022/01/08 12:42:29;;;;;;;3.40;1.47;;;6.10;99.90;;;;;;4975577;28;20475;-70
2022/01/08 12:44:59;;;;;;;1.43;1.37;;;5.90;99.90;;;;;;4976430;28;20447;-70
2022/01/08 12:47:40;;;;;;;2.83;2.03;;;5.90;99.90;;;;;;4977291;28;20598;-72
2022/01/08 12:50:23;;;;;;;8.40;1.57;;;5.80;99.90;;;;;;4978181;28;20451;-70
2022/01/08 12:53:12;;;;;;;2.40;1.40;;;5.90;99.90;;;;;;4982233;28;20915;-70
2022/01/08 12:55:42;;;;;;;2.10;1.00;;;6.00;99.90;;;;;;4982356;28;20450;-70
2022/01/08 12:58:17;;;;;;;5.20;2.17;;;6.00;99.90;;;;;;4981591;28;20454;-70
2022/01/08 13:00:54;;;;;;;4.43;1.87;;;5.80;99.90;;;;;;4982702;28;20490;-70
2022/01/08 13:03:24;;;;;;;3.57;1.57;;;5.80;99.90;;;;;;4986376;28;20458;-70
2022/01/08 13:05:50;;;;;;;1.30;1.20;;;5.60;99.90;;;;;;4979128;28;20455;-70
2022/01/08 13:08:24;;;;;;;3.53;1.47;;;5.50;99.90;;;;;;4978052;28;20459;-71
2022/01/08 13:10:56;;;;;;;1.43;1.23;;;5.60;99.90;;;;;;4977875;28;20996;-70
2022/01/08 13:13:24;;;;;;;1.20;1.20;;;5.50;99.90;;;;;;4978136;28;20443;-71
2022/01/08 13:15:50;;;;;;;0.83;0.77;;;5.40;99.90;;;;;;4977865;28;20546;-71
2022/01/08 13:18:19;;;;;;;1.00;1.00;;;5.30;99.90;;;;;;4977854;28;20451;-71
2022/01/08 13:20:47;;;;;;;4.83;1.47;;;5.20;99.90;;;;;;4977584;28;20483;-71
2022/01/08 13:23:14;;;;;;;1.40;1.30;;;5.10;99.90;;;;;;4977690;28;20462;-71
2022/01/08 13:25:41;;;;;;;2.17;2.00;;;5.20;99.90;;;;;;4977623;28;20459;-71
2022/01/08 13:28:10;;;;;;;3.27;1.50;;;5.00;99.90;;;;;;4977418;28;20475;-71
2022/01/08 13:30:37;;;;;;;1.50;1.17;;;5.00;99.90;;;;;;4977989;28;20565;-71
2022/01/08 13:33:05;;;;;;;1.40;1.30;;;4.80;99.90;;;;;;4977897;28;20466;-71
2022/01/08 13:35:33;;;;;;;1.17;1.17;;;4.80;99.90;;;;;;4977761;28;20833;-71
2022/01/08 13:38:01;;;;;;;2.67;1.30;;;4.70;99.90;;;;;;4977356;28;20463;-70
2022/01/08 13:40:28;;;;;;;1.33;1.33;;;4.70;99.90;;;;;;4977527;28;20934;-71
2022/01/08 13:42:55;;;;;;;1.67;1.57;;;4.60;99.90;;;;;;4977482;28;20550;-71
2022/01/08 13:45:25;;;;;;;1.57;1.47;;;4.70;99.90;;;;;;4977452;28;20514;-71
2022/01/08 13:47:53;;;;;;;3.00;1.60;;;4.70;99.90;;;;;;4977208;28;20467;-71
2022/01/08 13:50:27;;;;;;;1.53;1.10;;;4.70;99.90;;;;;;4977361;28;20459;-71
2022/01/08 13:52:58;;;;;;;1.57;1.40;;;4.70;99.90;;;;;;4977037;28;20455;-71
2022/01/08 13:55:29;;;;;;;1.77;1.67;;;4.60;99.90;;;;;;4977638;28;20448;-71
2022/01/08 13:58:05;;;;;;;2.53;2.10;;;4.50;99.90;;;;;;4977254;28;20457;-70
2022/01/08 14:00:33;;;;;;;1.70;1.57;;;4.50;99.90;;;;;;4978721;28;20509;-71
2022/01/08 14:03:00;;;;;;;2.53;1.10;;;4.50;99.90;;;;;;4979580;28;20448;-71
2022/01/08 14:05:29;;;;;;;1.77;1.30;;;4.40;99.90;;;;;;4977551;28;20459;-71
2022/01/08 14:08:05;;;;;;;1.80;1.70;;;4.30;99.90;;;;;;4977602;28;20597;-71
2022/01/08 14:10:39;;;;;;;1.30;1.20;;;4.40;99.90;;;;;;4977958;28;20466;-71
2022/01/08 14:13:08;;;;;;;3.17;1.47;;;4.50;99.90;;;;;;4977129;28;20502;-71
2022/01/08 14:15:35;;;;;;;2.23;2.13;;;4.60;99.90;;;;;;4977234;28;20455;-71
2022/01/08 14:18:09;;;;;;;1.50;1.40;;;4.50;99.90;;;;;;4977149;28;20815;-71
2022/01/08 14:20:36;;;;;;;4.13;1.60;;;4.60;99.90;;;;;;4976691;28;20481;-71
2022/01/08 14:23:11;;;;;;;2.20;1.47;;;4.60;99.90;;;;;;4976612;28;20463;-71
2022/01/08 14:25:39;;;;;;;1.13;1.13;;;4.70;99.90;;;;;;4976442;28;20494;-71
2022/01/08 14:28:24;;;;;;;1.17;1.17;;;4.60;99.90;;;;;;4976425;28;20516;-71
2022/01/08 14:30:52;;;;;;;1.47;1.30;;;4.50;99.90;;;;;;4976426;28;20486;-71
2022/01/08 14:33:19;;;;;;;1.27;1.17;;;4.50;99.90;;;;;;4977072;28;20459;-71
2022/01/08 14:35:46;;;;;;;2.00;1.83;;;4.50;99.90;;;;;;4976731;28;20462;-71
2022/01/08 14:38:13;;;;;;;1.83;1.53;;;4.50;99.90;;;;;;4976751;28;20463;-71
2022/01/08 14:40:47;;;;;;;2.00;1.63;;;4.50;99.90;;;;;;4976227;28;20850;-71
2022/01/08 14:43:14;;;;;;;1.80;1.70;;;4.50;99.90;;;;;;4976421;28;20911;-71
2022/01/08 14:45:48;;;;;;;5.60;1.90;;;4.60;99.90;;;;;;4976250;28;20463;-71
2022/01/08 14:48:16;;;;;;;4.03;1.90;;;4.60;99.90;;;;;;4976210;28;20517;-71
2022/01/08 14:50:43;;;;;;;2.20;2.00;;;4.70;99.90;;;;;;4975689;28;20982;-71
2022/01/08 14:53:10;;;;;;;1.77;1.67;;;4.60;99.90;;;;;;4977408;28;20458;-71
2022/01/08 14:55:38;;;;;;;1.77;1.47;;;4.70;99.90;;;;;;4988912;28;20455;-71
2022/01/08 14:58:07;;;;;;;7.93;3.00;;;4.70;99.90;;;;;;4976685;28;20481;-71
2022/01/08 15:00:34;;;;;;;2.43;1.90;;;4.60;99.90;;;;;;4976054;28;20455;-71
2022/01/08 15:03:02;;;;;;;1.73;1.63;;;4.60;99.90;;;;;;4976541;28;20448;-71
2022/01/08 15:05:30;;;;;;;1.83;1.73;;;4.40;99.90;;;;;;4976218;28;20462;-71
2022/01/08 15:07:57;;;;;;;3.43;2.07;;;4.40;99.90;;;;;;4976405;28;20558;-71
2022/01/08 15:10:23;;;;;;;2.27;2.07;;;4.40;99.90;;;;;;4975659;28;20447;-71
2022/01/08 15:12:51;;;;;;;3.70;2.30;;;4.40;99.90;;;;;;4976238;28;20455;-71
2022/01/08 15:15:20;;;;;;;2.40;1.50;;;4.40;99.90;;;;;;4975988;28;20462;-71
2022/01/08 15:17:47;;;;;;;2.00;1.63;;;4.40;99.90;;;;;;4975754;28;20454;-71
2022/01/08 15:20:14;;;;;;;3.07;1.63;;;4.30;99.90;;;;;;4976026;28;20514;-71
2022/01/08 15:22:41;;;;;;;3.10;1.40;;;4.30;99.90;;;;;;4976242;28;20464;-71
2022/01/08 15:25:08;;;;;;;2.67;1.70;;;4.40;99.90;;;;;;4975773;28;20455;-71
2022/01/08 15:27:35;;;;;;;2.83;2.57;;;4.40;99.90;;;;;;4976230;28;20502;-71
2022/01/08 15:30:02;;;;;;;4.00;1.93;;;4.50;99.90;;;;;;4975909;28;20490;-71
2022/01/08 15:32:34;;;;;;;3.83;1.80;;;4.50;99.90;;;;;;4975980;28;20486;-71
2022/01/08 15:35:01;;;;;;;2.13;1.97;;;4.50;99.90;;;;;;4975460;28;20850;-71
2022/01/08 15:37:28;;;;;;;1.70;1.60;;;4.50;99.90;;;;;;4975652;28;20451;-71
2022/01/08 15:39:55;;;;;;;1.77;1.67;;;4.50;99.90;;;;;;4975121;28;20946;-71
2022/01/08 15:42:22;;;;;;;1.77;1.67;;;4.50;99.90;;;;;;4975186;28;20983;-70
2022/01/08 15:44:49;;;;;;;3.13;2.10;;;4.50;99.90;;;;;;4975368;28;20462;-71
2022/01/08 15:47:16;;;;;;;2.93;2.30;;;4.50;99.90;;;;;;4975409;28;20566;-70
2022/01/08 15:49:44;;;;;;;2.90;2.63;;;4.50;99.90;;;;;;4976490;28;20455;-71
2022/01/08 15:52:11;;;;;;;2.70;2.37;;;4.40;99.90;;;;;;4974957;28;20843;-70
2022/01/08 15:54:37;;;;;;;2.63;2.33;;;4.50;99.90;;;;;;4975488;28;20962;-71
2022/01/08 15:57:04;;;;;;;1.97;1.87;;;4.50;99.90;;;;;;4975240;28;20489;-72
2022/01/08 15:59:31;;;;;;;3.03;1.50;;;4.40;99.90;;;;;;4975954;28;20468;-71
2022/01/08 16:01:58;;;;;;;2.60;1.93;;;4.40;99.90;;;;;;4975434;28;20490;-72
2022/01/08 16:04:25;;;;;;;1.97;1.67;;;4.30;99.90;;;;;;4975183;28;20470;-72
2022/01/08 16:06:53;;;;;;;1.57;1.47;;;4.30;99.90;;;;;;4976373;28;20462;-71
2022/01/08 16:09:20;;;;;;;2.13;1.37;;;4.30;99.90;;;;;;4982079;28;20478;-71
2022/01/08 16:11:46;;;;;;;2.90;1.70;;;4.30;99.90;;;;;;4981294;28;20467;-71
2022/01/08 16:14:13;;;;;;;1.20;1.20;;;4.30;99.90;;;;;;4976617;28;20432;-72
2022/01/08 16:16:40;;;;;;;4.87;1.70;;;4.30;99.90;;;;;;4975400;28;20482;-71
2022/01/08 16:19:07;;;;;;;2.27;1.50;;;4.30;99.90;;;;;;4975353;28;20451;-71
2022/01/08 16:21:34;;;;;;;2.43;1.60;;;4.40;99.90;;;;;;4975819;28;20481;-71
2022/01/08 16:24:03;;;;;;;1.37;1.27;;;4.30;99.90;;;;;;4977289;28;20454;-72
2022/01/08 16:26:30;;;;;;;2.67;1.23;;;4.40;99.90;;;;;;4976573;28;20466;-73
2022/01/08 16:28:56;;;;;;;2.07;1.47;;;4.40;99.90;;;;;;4978719;28;20485;-72
2022/01/08 16:31:24;;;;;;;1.50;1.30;;;4.40;99.90;;;;;;4978777;28;20494;-72
2022/01/08 16:33:52;;;;;;;1.23;1.13;;;4.40;99.90;;;;;;4979087;28;20481;-73
2022/01/08 16:36:18;;;;;;;1.73;1.63;;;4.30;99.90;;;;;;4978931;28;20459;-72
2022/01/08 16:38:46;;;;;;;2.23;1.80;;;4.30;99.90;;;;;;4978819;28;20910;-72
2022/01/08 16:41:14;;;;;;;1.90;1.50;;;4.30;99.90;;;;;;4984181;28;20831;-73
2022/01/08 16:43:41;;;;;;;68.60;23.80;;;4.30;99.90;;;;;;4980674;28;20466;-72
2022/01/08 16:46:09;;;;;;;54.03;25.07;;;4.30;99.90;;;;;;4978647;28;20462;-72
2022/01/08 16:48:36;;;;;;;2.87;2.60;;;4.30;99.90;;;;;;4977996;28;21008;-72
2022/01/08 16:51:05;;;;;;;2.00;1.80;;;4.30;99.90;;;;;;4978470;28;20483;-73
2022/01/08 16:53:36;;;;;;;2.23;2.00;;;4.20;99.90;;;;;;4978747;28;20451;-72
2022/01/08 16:56:03;;;;;;;2.20;1.60;;;4.20;99.90;;;;;;4980085;28;20447;-72
2022/01/08 16:58:31;;;;;;;1.63;1.47;;;4.20;99.90;;;;;;4985051;28;20858;-73
2022/01/08 17:00:58;;;;;;;1.27;1.20;;;4.10;99.90;;;;;;4981921;28;20494;-73
2022/01/08 17:03:25;;;;;;;1.63;1.53;;;4.10;99.90;;;;;;4982758;28;20465;-73
2022/01/08 17:05:51;;;;;;;2.37;1.57;;;4.10;99.90;;;;;;4982483;28;20513;-72
2022/01/08 17:08:18;;;;;;;1.10;1.10;;;4.10;99.90;;;;;;4983197;28;20825;-71
2022/01/08 17:10:46;;;;;;;6.13;1.70;;;4.10;99.90;;;;;;4979508;28;21005;-70
2022/01/08 17:13:13;;;;;;;1.10;1.10;;;4.10;99.90;;;;;;4981541;28;20459;-70
2022/01/08 17:15:41;;;;;;;2.03;1.40;;;4.00;99.90;;;;;;4980243;28;20458;-72
2022/01/08 17:18:07;;;;;;;2.50;1.80;;;4.10;99.90;;;;;;4980352;28;20968;-70
2022/01/08 17:20:34;;;;;;;2.60;1.40;;;4.10;99.90;;;;;;4978403;28;20458;-69
2022/01/08 17:23:01;;;;;;;6.23;1.97;;;4.20;99.90;;;;;;4977954;28;20455;-70
2022/01/08 17:25:29;;;;;;;1.90;1.20;;;4.30;99.90;;;;;;4978331;28;20462;-71
2022/01/08 17:27:56;;;;;;;3.10;1.93;;;4.20;99.90;;;;;;4980721;28;21072;-72
2022/01/08 17:30:23;;;;;;;1.73;1.50;;;4.20;99.90;;;;;;4978103;28;20455;-72
2022/01/08 17:33:01;;;;;;;2.67;1.53;;;4.20;99.90;;;;;;4982252;28;20443;-72
2022/01/08 17:35:30;;;;;;;2.90;1.50;;;4.30;99.90;;;;;;4977515;28;20798;-72
2022/01/08 17:37:57;;;;;;;1.97;1.50;;;4.30;99.90;;;;;;4977055;28;20506;-77
2022/01/08 17:40:23;;;;;;;1.43;1.33;;;4.50;99.90;;;;;;4977207;28;20459;-72
2022/01/08 17:42:50;;;;;;;1.47;1.37;;;4.40;99.90;;;;;;4977590;28;20479;-72
2022/01/08 17:45:17;;;;;;;2.60;1.47;;;4.40;99.90;;;;;;4977280;28;20456;-72
2022/01/08 17:47:45;;;;;;;3.50;3.20;;;4.30;99.90;;;;;;4977797;28;20486;-72
2022/01/08 17:50:13;;;;;;;1.50;1.40;;;4.20;99.90;;;;;;4978145;28;20465;-72
2022/01/08 17:52:40;;;;;;;1.63;1.53;;;3.80;99.90;;;;;;4977526;28;20502;-72
2022/01/08 17:55:08;;;;;;;2.90;2.00;;;3.70;99.90;;;;;;4978346;28;20464;-72
2022/01/08 17:57:34;;;;;;;2.30;2.07;;;3.60;99.90;;;;;;4977867;28;20463;-69
2022/01/08 18:00:01;;;;;;;1.50;1.40;;;3.50;99.90;;;;;;4978174;28;20462;-72
2022/01/08 18:02:29;;;;;;;2.17;1.60;;;3.30;99.90;;;;;;4976404;28;21017;-72
2022/01/08 18:04:57;;;;;;;1.70;1.57;;;3.20;99.90;;;;;;4977091;28;20459;-72
2022/01/08 18:07:27;;;;;;;2.70;2.50;;;3.10;99.90;;;;;;4977791;28;20463;-72
2022/01/08 18:09:53;;;;;;;1.97;1.80;;;3.10;99.90;;;;;;4977569;28;20462;-74